Flight Track Log - Related Links

Times and Time Zones

All times are in EDT time to prevent confusion due to time zone crossing. See the XOJ722 flight status page for this flight to view local times or setup timezone preferences in your user account.

Time Position Orientation Groundspeed Altitude Reporting Facility
EDT Latitude Longitude Course Direction KTS MPH feet Rate Location/Type
Tue 07:44:35 PM 37.6833 -122.5333 297° West 246 283 3,000  Level Northern Cal TRACON
Tue 07:45:05 PM 37.6772 -122.5658 257° West 248 285 3,800 3,130 Climbing Oakland Center
Tue 07:46:07 PM 37.6122 -122.5492 169° South 261 300 7,800 3,805 Climbing Oakland Center
Tue 07:47:08 PM 37.5625 -122.4858 135° Southeast 258 297 11,600 2,878 Climbing Oakland Center
Tue 07:48:10 PM 37.5064 -122.4083 132° Southeast 293 337 13,700 2,000 Climbing Oakland Center
Tue 07:49:00 PM 37.2805 -122.1291 130° Southeast  Level FlightAware Approximate
Tue 07:49:11 PM 37.4322 -122.3269 139° Southeast 353 406 15,700  Level Oakland Center
Tue 07:50:13 PM 37.3472 -122.2486 144° Southeast 376 433 17,700 2,000 Climbing Oakland Center
Tue 07:51:14 PM 37.2650 -122.1603 139° Southeast 389 448 19,800 2,000 Climbing Oakland Center
Tue 07:52:16 PM 37.1633 -122.0497 139° Southeast 402 463 21,800 1,707 Climbing Oakland Center
Tue 07:53:17 PM 37.0756 -121.9544 139° Southeast 416 479 23,300 1,463 Climbing Oakland Center
Tue 07:54:19 PM 36.9861 -121.8547 138° Southeast 429 494 24,800 1,463 Climbing Oakland Center
Tue 07:55:20 PM 36.8908 -121.7578 141° Southeast 443 510 26,300 1,475 Climbing Oakland Center
Tue 07:56:21 PM 36.8003 -121.6600 139° Southeast 449 517 27,800 1,463 Climbing Oakland Center
Tue 07:57:23 PM 36.7056 -121.5583 139° Southeast 452 520 29,300 1,561 Climbing Oakland Center
Tue 07:58:24 PM 36.5917 -121.4350 139° Southeast 454 522 31,000 829 Climbing Oakland Center
Tue 07:59:26 PM 36.4908 -121.3297 140° Southeast 472 543 31,000  Level Oakland Center
Tue 08:00:27 PM 36.3872 -121.2167 139° Southeast 494 568 31,000  Level Oakland Center
Tue 08:01:29 PM 36.2806 -121.1058 140° Southeast 502 578 31,000  Level Oakland Center
Tue 08:02:30 PM 36.1753 -120.9917 139° Southeast 502 578 31,000  Level Oakland Center
Tue 08:03:31 PM 36.0689 -120.8803 140° Southeast 503 579 31,000  Level Oakland Center
Tue 08:04:33 PM 35.9639 -120.7672 139° Southeast 501 577 31,000  Level Oakland Center
Tue 08:05:34 PM 35.8578 -120.6558 140° Southeast 502 578 31,000  Level Oakland Center
Tue 08:06:36 PM 35.7536 -120.5464 140° Southeast 496 571 31,000  Level Oakland Center
Tue 08:07:37 PM 35.6469 -120.4364 140° Southeast 497 572 31,000  Level Oakland Center
Tue 08:08:45 PM 35.5231 -120.3072 140° Southeast 494 568 31,000  Level Los Angeles Center
Tue 08:09:47 PM 35.4164 -120.1972 140° Southeast 498 573 31,000  Level Los Angeles Center
Tue 08:10:49 PM 35.3011 -120.0769 140° Southeast 501 577 31,000  Level Los Angeles Center
Tue 08:11:51 PM 35.1939 -119.9678 140° Southeast 499 574 31,000 -774 Level Los Angeles Center
Tue 08:12:53 PM 35.0892 -119.8531 138° Southeast 504 580 29,400 -1,887 Descending Los Angeles Center
Tue 08:13:55 PM 34.9725 -119.7031 133° Southeast 507 583 27,100 -2,256 Descending Los Angeles Center
Tue 08:14:58 PM 34.8811 -119.5767 131° Southeast 500 575 24,700 -2,400 Descending Los Angeles Center
Tue 08:16:00 PM 34.7997 -119.4697 133° Southeast 428 493 22,100 -2,516 Descending Los Angeles Center
Tue 08:17:02 PM 34.7303 -119.3764 132° Southeast 379 436 19,500 -3,581 Descending Los Angeles Center
Tue 08:18:04 PM 34.6650 -119.2878 132° Southeast 357 411 14,700 -3,581 Descending Los Angeles Center
Tue 08:19:06 PM 34.5931 -119.1933 133° Southeast 345 397 12,100 -1,548 Descending Los Angeles Center
Tue 08:20:08 PM 34.5439 -119.1297 133° Southeast 330 380 11,500 -532 Descending Los Angeles Center
Tue 08:21:10 PM 34.4706 -119.0317 132° Southeast 329 379 11,000 -581 Descending Los Angeles Center
Tue 08:22:12 PM 34.4350 -118.9133 110° East 325 374 10,300 -871 Descending Los Angeles Center
Tue 08:23:14 PM 34.4319 -118.8122 92° East 300 345 9,200 -1,248 Descending Los Angeles Center
Tue 08:24:17 PM 34.3858 -118.7403 128° Southeast 273 314 7,700 -1,200 Descending Los Angeles Center
Tue 08:25:19 PM 34.3469 -118.6767 127° Southeast 237 273 6,700 -1,800 Descending Los Angeles Center
Tue 08:26:17 PM 34.3167 -118.6167 121° Southeast 218 251 4,100 -1,983 Descending Southern California TRACON
Tue 08:27:17 PM 34.2833 -118.5500 121° Southeast 205 236 2,800 -1,050 Descending Southern California TRACON
Tue 08:28:17 PM 34.2667 -118.5000 112° Southeast 169 194 2,000 -800 Descending Southern California TRACON
Tue 08:31:00 PM 34.2098 -118.4900 180° South  Level Estimated
Tue 08:38:00 PM 34.2098 -118.4900 180° South  Level Estimated

Login

Don't have an account? Register now (free) for customized features, flight alerts, and more!